sensor_id;sensor_type;location;lat;lon;timestamp;temperature;humidity
61201;DHT22;47065;52.898;6.992;2023-11-18T00:00:07;1.20;99.90
61201;DHT22;47065;52.898;6.992;2023-11-18T00:02:39;1.10;99.90
61201;DHT22;47065;52.898;6.992;2023-11-18T00:05:05;1.10;99.90
61201;DHT22;47065;52.898;6.992;2023-11-18T00:07:32;1.10;99.90
61201;DHT22;47065;52.898;6.992;2023-11-18T00:09:58;1.00;99.90
61201;DHT22;47065;52.898;6.992;2023-11-18T00:12:24;1.10;99.90
61201;DHT22;47065;52.898;6.992;2023-11-18T00:14:50;1.00;99.90
61201;DHT22;47065;52.898;6.992;2023-11-18T00:17:15;1.00;99.90
61201;DHT22;47065;52.898;6.992;2023-11-18T00:19:41;1.10;99.90
61201;DHT22;47065;52.898;6.992;2023-11-18T00:22:08;1.00;99.90
61201;DHT22;47065;52.898;6.992;2023-11-18T00:24:33;1.00;99.90
61201;DHT22;47065;52.898;6.992;2023-11-18T00:27:02;1.00;99.90
61201;DHT22;47065;52.898;6.992;2023-11-18T00:29:34;1.00;99.90
61201;DHT22;47065;52.898;6.992;2023-11-18T00:32:04;0.90;99.90
61201;DHT22;47065;52.898;6.992;2023-11-18T00:34:30;1.00;99.90
61201;DHT22;47065;52.898;6.992;2023-11-18T00:36:56;0.90;99.90
61201;DHT22;47065;52.898;6.992;2023-11-18T00:39:25;0.90;99.90
61201;DHT22;47065;52.898;6.992;2023-11-18T00:41:52;0.90;99.90
61201;DHT22;47065;52.898;6.992;2023-11-18T00:44:18;0.90;99.90
61201;DHT22;47065;52.898;6.992;2023-11-18T00:46:44;0.80;99.90
61201;DHT22;47065;52.898;6.992;2023-11-18T00:49:09;0.80;99.90
61201;DHT22;47065;52.898;6.992;2023-11-18T00:51:37;0.80;99.90
61201;DHT22;47065;52.898;6.992;2023-11-18T00:54:03;0.80;99.90
61201;DHT22;47065;52.898;6.992;2023-11-18T00:56:31;0.80;99.90
61201;DHT22;47065;52.898;6.992;2023-11-18T00:58:57;0.90;99.90
61201;DHT22;47065;52.898;6.992;2023-11-18T01:01:22;0.90;99.90
61201;DHT22;47065;52.898;6.992;2023-11-18T01:03:48;0.80;99.90
61201;DHT22;47065;52.898;6.992;2023-11-18T01:06:14;0.90;99.90
61201;DHT22;47065;52.898;6.992;2023-11-18T01:08:46;0.80;99.90
61201;DHT22;47065;52.898;6.992;2023-11-18T01:11:21;0.90;99.90
61201;DHT22;47065;52.898;6.992;2023-11-18T01:13:48;0.80;99.90
61201;DHT22;47065;52.898;6.992;2023-11-18T01:16:14;0.90;99.90
61201;DHT22;47065;52.898;6.992;2023-11-18T01:18:41;0.80;99.90
61201;DHT22;47065;52.898;6.992;2023-11-18T01:21:07;0.80;99.90
61201;DHT22;47065;52.898;6.992;2023-11-18T01:23:36;0.90;99.90
61201;DHT22;47065;52.898;6.992;2023-11-18T01:26:03;0.80;99.90
61201;DHT22;47065;52.898;6.992;2023-11-18T01:28:33;0.80;99.90
61201;DHT22;47065;52.898;6.992;2023-11-18T01:31:05;0.80;99.90
61201;DHT22;47065;52.898;6.992;2023-11-18T01:33:35;0.80;99.90
61201;DHT22;47065;52.898;6.992;2023-11-18T01:36:03;0.90;99.90
61201;DHT22;47065;52.898;6.992;2023-11-18T01:38:29;0.90;99.90
61201;DHT22;47065;52.898;6.992;2023-11-18T01:40:56;0.90;99.90
61201;DHT22;47065;52.898;6.992;2023-11-18T01:43:22;0.90;99.90
61201;DHT22;47065;52.898;6.992;2023-11-18T01:45:48;0.90;99.90
61201;DHT22;47065;52.898;6.992;2023-11-18T01:48:14;0.90;99.90
61201;DHT22;47065;52.898;6.992;2023-11-18T01:50:41;0.90;99.90
61201;DHT22;47065;52.898;6.992;2023-11-18T01:53:09;1.00;99.90
61201;DHT22;47065;52.898;6.992;2023-11-18T01:55:35;1.00;99.90
61201;DHT22;47065;52.898;6.992;2023-11-18T01:58:02;1.00;99.90
61201;DHT22;47065;52.898;6.992;2023-11-18T02:00:41;1.00;99.90
61201;DHT22;47065;52.898;6.992;2023-11-18T02:03:12;1.00;99.90
61201;DHT22;47065;52.898;6.992;2023-11-18T02:05:37;1.10;99.90
61201;DHT22;47065;52.898;6.992;2023-11-18T02:08:04;1.10;99.90
61201;DHT22;47065;52.898;6.992;2023-11-18T02:11:10;1.10;99.90
61201;DHT22;47065;52.898;6.992;2023-11-18T02:13:40;1.10;99.90
61201;DHT22;47065;52.898;6.992;2023-11-18T02:16:07;1.10;99.90
61201;DHT22;47065;52.898;6.992;2023-11-18T02:18:34;1.10;99.90
61201;DHT22;47065;52.898;6.992;2023-11-18T02:21:00;1.10;99.90
61201;DHT22;47065;52.898;6.992;2023-11-18T02:23:27;1.10;99.90
61201;DHT22;47065;52.898;6.992;2023-11-18T02:25:53;1.10;99.90
61201;DHT22;47065;52.898;6.992;2023-11-18T02:28:21;1.10;99.90
61201;DHT22;47065;52.898;6.992;2023-11-18T02:30:47;1.10;99.90
61201;DHT22;47065;52.898;6.992;2023-11-18T02:33:18;1.10;99.90
61201;DHT22;47065;52.898;6.992;2023-11-18T02:35:51;1.10;99.90
61201;DHT22;47065;52.898;6.992;2023-11-18T02:38:29;1.10;99.90
61201;DHT22;47065;52.898;6.992;2023-11-18T02:40:58;1.10;99.90
61201;DHT22;47065;52.898;6.992;2023-11-18T02:43:25;1.10;99.90
61201;DHT22;47065;52.898;6.992;2023-11-18T02:45:54;1.10;99.90
61201;DHT22;47065;52.898;6.992;2023-11-18T02:48:22;1.10;99.90
61201;DHT22;47065;52.898;6.992;2023-11-18T02:50:49;1.20;99.90
61201;DHT22;47065;52.898;6.992;2023-11-18T02:53:14;1.20;99.90
61201;DHT22;47065;52.898;6.992;2023-11-18T02:55:40;1.20;99.90
61201;DHT22;47065;52.898;6.992;2023-11-18T02:58:06;1.20;99.90
61201;DHT22;47065;52.898;6.992;2023-11-18T03:00:33;1.30;99.90
61201;DHT22;47065;52.898;6.992;2023-11-18T03:02:59;1.30;99.90
61201;DHT22;47065;52.898;6.992;2023-11-18T03:05:25;1.30;99.90
61201;DHT22;47065;52.898;6.992;2023-11-18T03:07:51;1.40;99.90
61201;DHT22;47065;52.898;6.992;2023-11-18T03:10:20;1.40;99.90
61201;DHT22;47065;52.898;6.992;2023-11-18T03:12:50;1.40;99.90
61201;DHT22;47065;52.898;6.992;2023-11-18T03:15:16;1.40;99.90
61201;DHT22;47065;52.898;6.992;2023-11-18T03:17:49;1.40;99.90
61201;DHT22;47065;52.898;6.992;2023-11-18T03:20:24;1.40;99.90
61201;DHT22;47065;52.898;6.992;2023-11-18T03:22:51;1.50;99.90
61201;DHT22;47065;52.898;6.992;2023-11-18T03:25:18;1.50;99.90
61201;DHT22;47065;52.898;6.992;2023-11-18T03:27:45;1.50;99.90
61201;DHT22;47065;52.898;6.992;2023-11-18T03:30:10;1.50;99.90
61201;DHT22;47065;52.898;6.992;2023-11-18T03:32:37;1.60;99.90
61201;DHT22;47065;52.898;6.992;2023-11-18T03:35:04;1.60;99.90
61201;DHT22;47065;52.898;6.992;2023-11-18T03:37:38;1.60;99.90
61201;DHT22;47065;52.898;6.992;2023-11-18T03:40:06;1.60;99.90
61201;DHT22;47065;52.898;6.992;2023-11-18T03:42:32;1.70;99.90
61201;DHT22;47065;52.898;6.992;2023-11-18T03:44:58;1.70;99.90
61201;DHT22;47065;52.898;6.992;2023-11-18T03:47:23;1.80;99.90
61201;DHT22;47065;52.898;6.992;2023-11-18T03:49:50;1.80;99.90
61201;DHT22;47065;52.898;6.992;2023-11-18T03:52:16;1.80;99.90
61201;DHT22;47065;52.898;6.992;2023-11-18T03:54:41;1.90;99.90
61201;DHT22;47065;52.898;6.992;2023-11-18T03:57:07;1.90;99.90
61201;DHT22;47065;52.898;6.992;2023-11-18T03:59:33;1.90;99.90
61201;DHT22;47065;52.898;6.992;2023-11-18T04:01:58;2.00;99.90
61201;DHT22;47065;52.898;6.992;2023-11-18T04:04:24;2.00;99.90
61201;DHT22;47065;52.898;6.992;2023-11-18T04:06:50;2.10;99.90
61201;DHT22;47065;52.898;6.992;2023-11-18T04:09:15;2.10;99.90
61201;DHT22;47065;52.898;6.992;2023-11-18T04:11:41;2.10;99.90
61201;DHT22;47065;52.898;6.992;2023-11-18T04:14:10;2.10;99.90
61201;DHT22;47065;52.898;6.992;2023-11-18T04:16:36;2.10;99.90
61201;DHT22;47065;52.898;6.992;2023-11-18T04:19:03;2.20;99.90
61201;DHT22;47065;52.898;6.992;2023-11-18T04:21:29;2.20;99.90
61201;DHT22;47065;52.898;6.992;2023-11-18T04:23:55;2.20;99.90
61201;DHT22;47065;52.898;6.992;2023-11-18T04:26:21;2.20;99.90
61201;DHT22;47065;52.898;6.992;2023-11-18T04:28:46;2.20;99.90
61201;DHT22;47065;52.898;6.992;2023-11-18T04:31:12;2.10;99.90
61201;DHT22;47065;52.898;6.992;2023-11-18T04:33:38;2.20;99.90
61201;DHT22;47065;52.898;6.992;2023-11-18T04:36:06;2.20;99.90
61201;DHT22;47065;52.898;6.992;2023-11-18T04:38:35;2.20;99.90
61201;DHT22;47065;52.898;6.992;2023-11-18T04:41:01;2.20;99.90
61201;DHT22;47065;52.898;6.992;2023-11-18T04:43:29;2.20;99.90
61201;DHT22;47065;52.898;6.992;2023-11-18T04:45:56;2.20;99.90
61201;DHT22;47065;52.898;6.992;2023-11-18T04:48:22;2.20;99.90
61201;DHT22;47065;52.898;6.992;2023-11-18T04:50:48;2.20;99.90
61201;DHT22;47065;52.898;6.992;2023-11-18T04:53:13;2.30;99.90
61201;DHT22;47065;52.898;6.992;2023-11-18T04:55:39;2.30;99.90
61201;DHT22;47065;52.898;6.992;2023-11-18T04:58:05;2.20;99.90
61201;DHT22;47065;52.898;6.992;2023-11-18T05:00:38;2.30;99.90
61201;DHT22;47065;52.898;6.992;2023-11-18T05:03:05;2.20;99.90
61201;DHT22;47065;52.898;6.992;2023-11-18T05:05:35;2.30;99.90
61201;DHT22;47065;52.898;6.992;2023-11-18T05:08:04;2.30;99.90
61201;DHT22;47065;52.898;6.992;2023-11-18T05:10:35;2.30;99.90
61201;DHT22;47065;52.898;6.992;2023-11-18T05:13:02;2.30;99.90
61201;DHT22;47065;52.898;6.992;2023-11-18T05:15:28;2.30;99.90
61201;DHT22;47065;52.898;6.992;2023-11-18T05:17:55;2.30;99.90
61201;DHT22;47065;52.898;6.992;2023-11-18T05:20:21;2.30;99.90
61201;DHT22;47065;52.898;6.992;2023-11-18T05:22:47;2.30;99.90
61201;DHT22;47065;52.898;6.992;2023-11-18T05:25:13;2.30;99.90
61201;DHT22;47065;52.898;6.992;2023-11-18T05:27:39;2.30;99.90
61201;DHT22;47065;52.898;6.992;2023-11-18T05:30:07;2.30;99.90
61201;DHT22;47065;52.898;6.992;2023-11-18T05:32:33;2.30;99.90
61201;DHT22;47065;52.898;6.992;2023-11-18T05:34:59;2.30;99.90
61201;DHT22;47065;52.898;6.992;2023-11-18T05:37:25;2.30;99.90
61201;DHT22;47065;52.898;6.992;2023-11-18T05:39:53;2.40;99.90
61201;DHT22;47065;52.898;6.992;2023-11-18T05:42:25;2.40;99.90
61201;DHT22;47065;52.898;6.992;2023-11-18T05:44:51;2.40;99.90
61201;DHT22;47065;52.898;6.992;2023-11-18T05:47:24;2.50;99.90
61201;DHT22;47065;52.898;6.992;2023-11-18T05:49:51;2.50;99.90
61201;DHT22;47065;52.898;6.992;2023-11-18T05:52:17;2.50;99.90
61201;DHT22;47065;52.898;6.992;2023-11-18T05:54:43;2.50;99.90
61201;DHT22;47065;52.898;6.992;2023-11-18T05:57:09;2.50;99.90
61201;DHT22;47065;52.898;6.992;2023-11-18T05:59:35;2.60;99.90
61201;DHT22;47065;52.898;6.992;2023-11-18T06:02:01;2.60;99.90
61201;DHT22;47065;52.898;6.992;2023-11-18T06:07:10;2.60;99.90
61201;DHT22;47065;52.898;6.992;2023-11-18T06:09:41;2.70;99.90
61201;DHT22;47065;52.898;6.992;2023-11-18T06:12:10;2.70;99.90
61201;DHT22;47065;52.898;6.992;2023-11-18T06:14:40;2.70;99.90
61201;DHT22;47065;52.898;6.992;2023-11-18T06:17:07;2.80;99.90
61201;DHT22;47065;52.898;6.992;2023-11-18T06:19:34;2.80;99.90
61201;DHT22;47065;52.898;6.992;2023-11-18T06:21:59;2.80;99.90
61201;DHT22;47065;52.898;6.992;2023-11-18T06:24:25;2.80;99.90
61201;DHT22;47065;52.898;6.992;2023-11-18T06:26:51;2.80;99.90
61201;DHT22;47065;52.898;6.992;2023-11-18T06:29:17;2.90;99.90
61201;DHT22;47065;52.898;6.992;2023-11-18T06:31:43;2.90;99.90
61201;DHT22;47065;52.898;6.992;2023-11-18T06:34:08;2.90;99.90
61201;DHT22;47065;52.898;6.992;2023-11-18T06:36:34;2.90;99.90
61201;DHT22;47065;52.898;6.992;2023-11-18T06:39:00;2.90;99.90
61201;DHT22;47065;52.898;6.992;2023-11-18T06:41:26;2.90;99.90
61201;DHT22;47065;52.898;6.992;2023-11-18T06:43:59;3.00;99.90
61201;DHT22;47065;52.898;6.992;2023-11-18T06:46:31;3.00;99.90
61201;DHT22;47065;52.898;6.992;2023-11-18T06:49:01;3.00;99.90
61201;DHT22;47065;52.898;6.992;2023-11-18T06:51:34;3.00;99.90
61201;DHT22;47065;52.898;6.992;2023-11-18T06:54:01;3.00;99.90
61201;DHT22;47065;52.898;6.992;2023-11-18T06:56:34;3.00;99.90
61201;DHT22;47065;52.898;6.992;2023-11-18T06:59:01;3.10;99.90
61201;DHT22;47065;52.898;6.992;2023-11-18T07:01:27;3.10;99.90
61201;DHT22;47065;52.898;6.992;2023-11-18T07:03:55;3.10;99.90
61201;DHT22;47065;52.898;6.992;2023-11-18T07:06:21;3.10;99.90
61201;DHT22;47065;52.898;6.992;2023-11-18T07:08:52;3.10;99.90
61201;DHT22;47065;52.898;6.992;2023-11-18T07:11:19;3.20;99.90
61201;DHT22;47065;52.898;6.992;2023-11-18T07:13:47;3.20;99.90
61201;DHT22;47065;52.898;6.992;2023-11-18T07:16:13;3.20;99.90
61201;DHT22;47065;52.898;6.992;2023-11-18T07:18:40;3.20;99.90
61201;DHT22;47065;52.898;6.992;2023-11-18T07:21:07;3.20;99.90
61201;DHT22;47065;52.898;6.992;2023-11-18T07:23:35;3.30;99.90
61201;DHT22;47065;52.898;6.992;2023-11-18T07:26:01;3.30;99.90
61201;DHT22;47065;52.898;6.992;2023-11-18T07:28:27;3.30;99.90
61201;DHT22;47065;52.898;6.992;2023-11-18T07:30:53;3.30;99.90
61201;DHT22;47065;52.898;6.992;2023-11-18T07:33:20;3.30;99.90
61201;DHT22;47065;52.898;6.992;2023-11-18T07:35:47;3.30;99.90
61201;DHT22;47065;52.898;6.992;2023-11-18T07:38:14;3.30;99.90
61201;DHT22;47065;52.898;6.992;2023-11-18T07:40:40;3.30;99.90
61201;DHT22;47065;52.898;6.992;2023-11-18T07:43:14;3.30;99.90
61201;DHT22;47065;52.898;6.992;2023-11-18T07:45:40;3.30;99.90
61201;DHT22;47065;52.898;6.992;2023-11-18T07:48:08;3.30;99.90
61201;DHT22;47065;52.898;6.992;2023-11-18T07:50:35;3.30;99.90
61201;DHT22;47065;52.898;6.992;2023-11-18T07:53:01;3.30;99.90
61201;DHT22;47065;52.898;6.992;2023-11-18T07:55:28;3.30;99.90
61201;DHT22;47065;52.898;6.992;2023-11-18T07:57:54;3.30;99.90
61201;DHT22;47065;52.898;6.992;2023-11-18T08:00:20;3.30;99.90
61201;DHT22;47065;52.898;6.992;2023-11-18T08:02:46;3.30;99.90
61201;DHT22;47065;52.898;6.992;2023-11-18T08:05:12;3.30;99.90
61201;DHT22;47065;52.898;6.992;2023-11-18T08:07:41;3.30;99.90
61201;DHT22;47065;52.898;6.992;2023-11-18T08:10:09;3.30;99.90
61201;DHT22;47065;52.898;6.992;2023-11-18T08:12:39;3.30;99.90
61201;DHT22;47065;52.898;6.992;2023-11-18T08:15:06;3.30;99.90
61201;DHT22;47065;52.898;6.992;2023-11-18T08:17:32;3.40;99.90
61201;DHT22;47065;52.898;6.992;2023-11-18T08:19:59;3.40;99.90
61201;DHT22;47065;52.898;6.992;2023-11-18T08:22:25;3.40;99.90
61201;DHT22;47065;52.898;6.992;2023-11-18T08:24:51;3.40;99.90
61201;DHT22;47065;52.898;6.992;2023-11-18T08:27:17;3.40;99.90
61201;DHT22;47065;52.898;6.992;2023-11-18T08:29:43;3.40;99.90
61201;DHT22;47065;52.898;6.992;2023-11-18T08:32:09;3.50;99.90
61201;DHT22;47065;52.898;6.992;2023-11-18T08:34:37;3.50;99.90
61201;DHT22;47065;52.898;6.992;2023-11-18T08:37:07;3.50;99.90
61201;DHT22;47065;52.898;6.992;2023-11-18T08:39:33;3.50;99.90
61201;DHT22;47065;52.898;6.992;2023-11-18T08:41:58;3.50;99.90
61201;DHT22;47065;52.898;6.992;2023-11-18T08:44:24;3.50;99.90
61201;DHT22;47065;52.898;6.992;2023-11-18T08:46:53;3.60;99.90
61201;DHT22;47065;52.898;6.992;2023-11-18T08:49:19;3.50;99.90
61201;DHT22;47065;52.898;6.992;2023-11-18T08:51:50;3.60;99.90
61201;DHT22;47065;52.898;6.992;2023-11-18T08:54:22;3.60;99.90
61201;DHT22;47065;52.898;6.992;2023-11-18T08:56:51;3.60;99.90
61201;DHT22;47065;52.898;6.992;2023-11-18T08:59:21;3.60;99.90
61201;DHT22;47065;52.898;6.992;2023-11-18T09:01:53;3.60;99.90
61201;DHT22;47065;52.898;6.992;2023-11-18T09:04:27;3.60;99.90
61201;DHT22;47065;52.898;6.992;2023-11-18T09:06:53;3.60;99.90
61201;DHT22;47065;52.898;6.992;2023-11-18T09:09:23;3.60;99.90
61201;DHT22;47065;52.898;6.992;2023-11-18T09:11:55;3.60;99.90
61201;DHT22;47065;52.898;6.992;2023-11-18T09:14:22;3.70;99.90
61201;DHT22;47065;52.898;6.992;2023-11-18T09:16:50;3.70;99.90
61201;DHT22;47065;52.898;6.992;2023-11-18T09:19:16;3.70;99.90
61201;DHT22;47065;52.898;6.992;2023-11-18T09:21:43;3.70;99.90
61201;DHT22;47065;52.898;6.992;2023-11-18T09:24:10;3.80;99.90
61201;DHT22;47065;52.898;6.992;2023-11-18T09:26:39;3.80;99.90
61201;DHT22;47065;52.898;6.992;2023-11-18T09:29:05;3.80;99.90
61201;DHT22;47065;52.898;6.992;2023-11-18T09:31:34;3.90;99.90
61201;DHT22;47065;52.898;6.992;2023-11-18T09:34:01;3.90;99.90
61201;DHT22;47065;52.898;6.992;2023-11-18T09:36:32;3.90;99.90
61201;DHT22;47065;52.898;6.992;2023-11-18T09:38:59;4.00;99.90
61201;DHT22;47065;52.898;6.992;2023-11-18T09:41:25;4.00;99.90
61201;DHT22;47065;52.898;6.992;2023-11-18T09:43:53;4.10;99.90
61201;DHT22;47065;52.898;6.992;2023-11-18T09:49:06;4.20;99.90
61201;DHT22;47065;52.898;6.992;2023-11-18T09:51:44;4.20;99.90
61201;DHT22;47065;52.898;6.992;2023-11-18T09:54:30;4.20;99.90
61201;DHT22;47065;52.898;6.992;2023-11-18T09:59:58;4.40;99.90
61201;DHT22;47065;52.898;6.992;2023-11-18T10:02:25;4.40;99.90
61201;DHT22;47065;52.898;6.992;2023-11-18T10:04:52;4.50;99.90
61201;DHT22;47065;52.898;6.992;2023-11-18T10:07:25;4.50;99.90
61201;DHT22;47065;52.898;6.992;2023-11-18T10:09:57;4.50;99.90
61201;DHT22;47065;52.898;6.992;2023-11-18T10:12:23;4.60;99.90
61201;DHT22;47065;52.898;6.992;2023-11-18T10:14:49;4.60;99.90
61201;DHT22;47065;52.898;6.992;2023-11-18T10:17:18;4.60;99.90
61201;DHT22;47065;52.898;6.992;2023-11-18T10:19:57;4.70;99.90
61201;DHT22;47065;52.898;6.992;2023-11-18T10:22:27;4.70;99.90
61201;DHT22;47065;52.898;6.992;2023-11-18T10:24:54;4.70;99.90
61201;DHT22;47065;52.898;6.992;2023-11-18T10:27:24;4.70;99.90
61201;DHT22;47065;52.898;6.992;2023-11-18T10:29:58;4.70;99.90
61201;DHT22;47065;52.898;6.992;2023-11-18T10:32:24;4.80;99.90
61201;DHT22;47065;52.898;6.992;2023-11-18T10:34:56;4.80;99.90
61201;DHT22;47065;52.898;6.992;2023-11-18T10:37:23;4.80;99.90
61201;DHT22;47065;52.898;6.992;2023-11-18T10:39:48;4.90;99.90
61201;DHT22;47065;52.898;6.992;2023-11-18T10:42:18;4.90;99.90
61201;DHT22;47065;52.898;6.992;2023-11-18T10:44:57;4.90;99.90
61201;DHT22;47065;52.898;6.992;2023-11-18T10:47:27;4.90;99.90
61201;DHT22;47065;52.898;6.992;2023-11-18T10:49:54;4.90;99.90
61201;DHT22;47065;52.898;6.992;2023-11-18T10:52:24;5.00;99.90
61201;DHT22;47065;52.898;6.992;2023-11-18T10:54:54;5.00;99.90
61201;DHT22;47065;52.898;6.992;2023-11-18T10:57:20;5.00;99.90
61201;DHT22;47065;52.898;6.992;2023-11-18T11:02:27;5.00;99.90
61201;DHT22;47065;52.898;6.992;2023-11-18T11:05:00;5.00;99.90
61201;DHT22;47065;52.898;6.992;2023-11-18T11:07:26;5.00;99.90
61201;DHT22;47065;52.898;6.992;2023-11-18T11:09:53;5.00;99.90
61201;DHT22;47065;52.898;6.992;2023-11-18T11:12:23;5.00;99.90
61201;DHT22;47065;52.898;6.992;2023-11-18T11:15:12;5.10;99.90
61201;DHT22;47065;52.898;6.992;2023-11-18T11:17:50;5.00;99.90
61201;DHT22;47065;52.898;6.992;2023-11-18T11:20:22;5.00;99.90
61201;DHT22;47065;52.898;6.992;2023-11-18T11:26:44;5.00;99.90
61201;DHT22;47065;52.898;6.992;2023-11-18T11:29:30;5.10;99.90
61201;DHT22;47065;52.898;6.992;2023-11-18T11:34:41;5.10;99.90
61201;DHT22;47065;52.898;6.992;2023-11-18T11:37:11;5.10;99.90
61201;DHT22;47065;52.898;6.992;2023-11-18T11:39:41;5.10;99.90
61201;DHT22;47065;52.898;6.992;2023-11-18T11:42:13;5.10;99.90
61201;DHT22;47065;52.898;6.992;2023-11-18T11:44:43;5.10;99.90
61201;DHT22;47065;52.898;6.992;2023-11-18T11:47:10;5.10;99.90
61201;DHT22;47065;52.898;6.992;2023-11-18T11:50:07;5.20;99.90
61201;DHT22;47065;52.898;6.992;2023-11-18T11:52:45;5.20;99.90
61201;DHT22;47065;52.898;6.992;2023-11-18T11:57:52;5.20;99.90
61201;DHT22;47065;52.898;6.992;2023-11-18T12:00:23;5.20;99.90
61201;DHT22;47065;52.898;6.992;2023-11-18T12:02:52;5.20;99.90
61201;DHT22;47065;52.898;6.992;2023-11-18T12:05:24;5.20;99.90
61201;DHT22;47065;52.898;6.992;2023-11-18T12:07:55;5.20;99.90
61201;DHT22;47065;52.898;6.992;2023-11-18T12:10:26;5.20;99.90
61201;DHT22;47065;52.898;6.992;2023-11-18T12:13:09;5.30;99.90
61201;DHT22;47065;52.898;6.992;2023-11-18T12:15:55;5.30;99.90
61201;DHT22;47065;52.898;6.992;2023-11-18T12:18:24;5.30;99.90
61201;DHT22;47065;52.898;6.992;2023-11-18T12:20:50;5.30;99.90
61201;DHT22;47065;52.898;6.992;2023-11-18T12:23:28;5.30;99.90
61201;DHT22;47065;52.898;6.992;2023-11-18T12:25:56;5.30;99.90
61201;DHT22;47065;52.898;6.992;2023-11-18T12:28:31;5.30;99.90
61201;DHT22;47065;52.898;6.992;2023-11-18T12:31:01;5.30;99.90
61201;DHT22;47065;52.898;6.992;2023-11-18T12:36:43;5.30;99.90
61201;DHT22;47065;52.898;6.992;2023-11-18T12:39:27;5.30;99.90
61201;DHT22;47065;52.898;6.992;2023-11-18T12:42:03;5.30;99.90
61201;DHT22;47065;52.898;6.992;2023-11-18T12:44:39;5.30;99.90
61201;DHT22;47065;52.898;6.992;2023-11-18T12:47:14;5.30;99.90
61201;DHT22;47065;52.898;6.992;2023-11-18T12:49:44;5.30;99.90
61201;DHT22;47065;52.898;6.992;2023-11-18T12:52:16;5.30;99.90
61201;DHT22;47065;52.898;6.992;2023-11-18T12:54:44;5.30;99.90
61201;DHT22;47065;52.898;6.992;2023-11-18T12:57:16;5.30;99.90
61201;DHT22;47065;52.898;6.992;2023-11-18T12:59:43;5.30;99.90
61201;DHT22;47065;52.898;6.992;2023-11-18T13:02:09;5.40;99.90
61201;DHT22;47065;52.898;6.992;2023-11-18T13:04:41;5.40;99.90
61201;DHT22;47065;52.898;6.992;2023-11-18T13:07:08;5.40;99.90
61201;DHT22;47065;52.898;6.992;2023-11-18T13:09:34;5.40;99.90
61201;DHT22;47065;52.898;6.992;2023-11-18T13:12:03;5.40;99.90
61201;DHT22;47065;52.898;6.992;2023-11-18T13:14:35;5.40;99.90
61201;DHT22;47065;52.898;6.992;2023-11-18T13:17:15;5.40;99.90
61201;DHT22;47065;52.898;6.992;2023-11-18T13:19:43;5.40;99.90
61201;DHT22;47065;52.898;6.992;2023-11-18T13:22:13;5.40;99.90
61201;DHT22;47065;52.898;6.992;2023-11-18T13:24:43;5.40;99.90
61201;DHT22;47065;52.898;6.992;2023-11-18T13:27:16;5.40;99.90
61201;DHT22;47065;52.898;6.992;2023-11-18T13:29:45;5.40;99.90
61201;DHT22;47065;52.898;6.992;2023-11-18T13:32:11;5.40;99.90
61201;DHT22;47065;52.898;6.992;2023-11-18T13:34:39;5.40;99.90
61201;DHT22;47065;52.898;6.992;2023-11-18T13:37:07;5.40;99.90
61201;DHT22;47065;52.898;6.992;2023-11-18T13:39:34;5.40;99.90
61201;DHT22;47065;52.898;6.992;2023-11-18T13:42:27;5.40;99.90
61201;DHT22;47065;52.898;6.992;2023-11-18T13:45:02;5.40;99.90
61201;DHT22;47065;52.898;6.992;2023-11-18T13:47:32;5.40;99.90
61201;DHT22;47065;52.898;6.992;2023-11-18T13:49:57;5.40;99.90
61201;DHT22;47065;52.898;6.992;2023-11-18T13:52:26;5.40;99.90
61201;DHT22;47065;52.898;6.992;2023-11-18T13:54:52;5.40;99.90
61201;DHT22;47065;52.898;6.992;2023-11-18T13:57:23;5.40;99.90
61201;DHT22;47065;52.898;6.992;2023-11-18T13:59:52;5.40;99.90
61201;DHT22;47065;52.898;6.992;2023-11-18T14:02:20;5.40;99.90
61201;DHT22;47065;52.898;6.992;2023-11-18T14:04:46;5.40;99.90
61201;DHT22;47065;52.898;6.992;2023-11-18T14:07:17;5.40;99.90
61201;DHT22;47065;52.898;6.992;2023-11-18T14:09:46;5.50;99.90
61201;DHT22;47065;52.898;6.992;2023-11-18T14:12:13;5.40;99.90
61201;DHT22;47065;52.898;6.992;2023-11-18T14:14:39;5.50;99.90
61201;DHT22;47065;52.898;6.992;2023-11-18T14:17:05;5.50;99.90
61201;DHT22;47065;52.898;6.992;2023-11-18T14:19:36;5.50;99.90
61201;DHT22;47065;52.898;6.992;2023-11-18T14:22:03;5.50;99.90
61201;DHT22;47065;52.898;6.992;2023-11-18T14:24:33;5.50;99.90
61201;DHT22;47065;52.898;6.992;2023-11-18T14:26:58;5.50;99.90
61201;DHT22;47065;52.898;6.992;2023-11-18T14:29:24;5.50;99.90
61201;DHT22;47065;52.898;6.992;2023-11-18T14:31:50;5.50;99.90
61201;DHT22;47065;52.898;6.992;2023-11-18T14:34:15;5.50;99.90
61201;DHT22;47065;52.898;6.992;2023-11-18T14:36:41;5.60;99.90
61201;DHT22;47065;52.898;6.992;2023-11-18T14:39:09;5.60;99.90
61201;DHT22;47065;52.898;6.992;2023-11-18T14:41:40;5.60;99.90
61201;DHT22;47065;52.898;6.992;2023-11-18T14:44:06;5.60;99.90
61201;DHT22;47065;52.898;6.992;2023-11-18T14:46:35;5.60;99.90
61201;DHT22;47065;52.898;6.992;2023-11-18T14:49:04;5.60;99.90
61201;DHT22;47065;52.898;6.992;2023-11-18T14:51:31;5.60;99.90
61201;DHT22;47065;52.898;6.992;2023-11-18T14:53:57;5.60;99.90
61201;DHT22;47065;52.898;6.992;2023-11-18T14:56:22;5.70;99.90
61201;DHT22;47065;52.898;6.992;2023-11-18T14:58:48;5.70;99.90
61201;DHT22;47065;52.898;6.992;2023-11-18T15:01:15;5.70;99.90
61201;DHT22;47065;52.898;6.992;2023-11-18T15:03:44;5.70;99.90
61201;DHT22;47065;52.898;6.992;2023-11-18T15:06:11;5.70;99.90
61201;DHT22;47065;52.898;6.992;2023-11-18T15:08:37;5.70;99.90
61201;DHT22;47065;52.898;6.992;2023-11-18T15:11:05;5.70;99.90
61201;DHT22;47065;52.898;6.992;2023-11-18T15:13:32;5.70;99.90
61201;DHT22;47065;52.898;6.992;2023-11-18T15:15:58;5.80;99.90
61201;DHT22;47065;52.898;6.992;2023-11-18T15:18:24;5.80;99.90
61201;DHT22;47065;52.898;6.992;2023-11-18T15:20:49;5.80;99.90
61201;DHT22;47065;52.898;6.992;2023-11-18T15:23:17;5.80;99.90
61201;DHT22;47065;52.898;6.992;2023-11-18T15:25:43;5.80;99.90
61201;DHT22;47065;52.898;6.992;2023-11-18T15:28:09;5.80;99.90
61201;DHT22;47065;52.898;6.992;2023-11-18T15:30:39;5.80;99.90
61201;DHT22;47065;52.898;6.992;2023-11-18T15:33:06;5.80;99.90
61201;DHT22;47065;52.898;6.992;2023-11-18T15:35:38;5.80;99.90
61201;DHT22;47065;52.898;6.992;2023-11-18T15:38:08;5.80;99.90
61201;DHT22;47065;52.898;6.992;2023-11-18T15:40:35;5.90;99.90
61201;DHT22;47065;52.898;6.992;2023-11-18T15:43:02;5.80;99.90
61201;DHT22;47065;52.898;6.992;2023-11-18T15:45:28;5.90;99.90
61201;DHT22;47065;52.898;6.992;2023-11-18T15:47:54;5.90;99.90
61201;DHT22;47065;52.898;6.992;2023-11-18T15:50:19;5.90;99.90
61201;DHT22;47065;52.898;6.992;2023-11-18T15:52:48;5.90;99.90
61201;DHT22;47065;52.898;6.992;2023-11-18T15:55:14;5.90;99.90
61201;DHT22;47065;52.898;6.992;2023-11-18T15:57:40;5.90;99.90
61201;DHT22;47065;52.898;6.992;2023-11-18T16:00:08;5.90;99.90
61201;DHT22;47065;52.898;6.992;2023-11-18T16:02:40;6.00;99.90
61201;DHT22;47065;52.898;6.992;2023-11-18T16:05:06;6.00;99.90
61201;DHT22;47065;52.898;6.992;2023-11-18T16:07:32;6.00;99.90
61201;DHT22;47065;52.898;6.992;2023-11-18T16:09:58;6.00;99.90
61201;DHT22;47065;52.898;6.992;2023-11-18T16:12:26;6.10;99.90
61201;DHT22;47065;52.898;6.992;2023-11-18T16:14:55;6.10;99.90